AirNav   Pilot Hours Calculator
 
 1318 users online  

NH28 Hillsboro Ford Heliport
Hillsboro, New Hampshire, USA

GOING TO HILLSBORO?


FAA INFORMATION EFFECTIVE 30 JANUARY 2020

Location

FAA Identifier: NH28
Lat/Long: 43-06-36.0000N 071-55-02.4000W
43-06.600000N 071-55.040000W
43.1100000,-71.9173333
(estimated)
Elevation: 551 ft. / 168 m (estimated)
Time zone: UTC -5 (UTC -4 during Daylight Saving Time)
Zip code: 03244

Heliport Operations

Heliport use: Private use. Permission required prior to landing
Activation date: 09/2007
Control tower: no
ARTCC: BOSTON CENTER
FSS: BANGOR FLIGHT SERVICE STATION
Attendance: IREG
Wind indicator: yes
Segmented circle: no

Heliport Communications

WX ASOS at AFN (19 nm S): 135.875 (603-532-6195)
WX ASOS at CON (19 nm E): 132.325 (603-224-6558)

Nearby radio navigation aids

VOR radial/distance  VOR name  Freq  Var
CONr261/16.3CONCORD VOR/DME112.9015W
EENr055/25.1KEENE VORTAC109.4014W
MHTr316/28.1MANCHESTER VOR/DME114.4015W
GDMr024/34.4GARDNER VOR/DME110.6014W
LEBr174/36.5LEBANON VOR/DME113.7015W

 
NDB name  Hdg/Dist  Freq  Var  ID
CLAREMONT144/25.223316WCNH -.-. -. ....
HANOVER177/37.327615WLAH .-.. .- ....

Heliport Services

Runway Information

Helipad H1

Dimensions: 20 x 20 ft. / 6 x 6 m
Surface: turf
Traffic pattern: leftleft

Heliport Ownership and Management from official FAA records

Ownership: Privately-owned
Owner: 16 ANTRIM ROAD LLC
P.O.BOX 2160
HILLSBORO, NH 03244-2160
Phone 603-464-4000
Manager: DENNIS ROBERTS
P.O. BOX 2160
HILLSBORO, NH 03244-2160
Phone 603-662-5600

Additional Remarks

A52-H1 40 FT TREES 50 FT SOUTH OF PAD.
ANNOUNCE INTENTIONS ON FREQ 123.025.
FOR CD CTC BOSTON APCH AT 603-594-5551.

Instrument Procedures

There are no published instrument procedures at NH28.

Some nearby airports with instrument procedures:

KAFN - Jaffrey Airport-Silver Ranch (19 nm S)
KCON - Concord Municipal Airport (19 nm E)
KEEN - Dillant-Hopkins Airport (20 nm SW)
2B3 - Parlin Field Airport (20 nm NW)
KMHT - Manchester Airport (24 nm SE)
 
Loc | Ops | Rwys | IFR | FBO | Links
Com | Nav | Svcs | Stats | Notes
Aerial photo
No photo
 
Sectional chart

 
Airport distance calculator
Flying to Hillsboro Ford Heliport? Find the distance to fly.

From to NH28

Sunrise and sunset
Times for 17-Feb-2020
 Local
(UTC-5)
 Zulu
(UTC)
Morning civil twilight06:1511:15
Sunrise06:4411:44
Sunset17:2022:20
Evening civil twilight17:4922:49

Current date and time
Zulu (UTC)  17-Feb-2020 15:59:37
Local (UTC-5)  17-Feb-2020 10:59:37
 
METAR
KAFN 
19nm S 
171552Z AUTO 30010G17KT 10SM FEW040 02/M09 A3017 RMK AO2 SLP232 T00171089
KCON 
19nm E 
171551Z AUTO 30009G20KT 10SM CLR 02/M09 A3019 RMK AO2 SLP229 T00171094
KEEN 
20nm SW 
171456Z AUTO 03004KT 10SM BKN043 BKN050 02/M06 A3020 RMK AO2 SLP237 T00171061 51017 FZRANO $
KMHT 
24nm SE 
171553Z 28012G19KT 10SM FEW050 04/M11 A3019 RMK AO2 SLP240 T00391106
KASH 
27nm SE 
171456Z 29014G19KT 10SM SCT049 03/M07 A3020 RMK AO2 SLP233 T00331072 51019
KVSF 
30nm NW 
171554Z AUTO 32011G18KT 290V360 10SM CLR 01/M11 A3021 RMK AO2 SLP237 T00111111
KFIT 
34nm S 
171552Z AUTO 31008KT 10SM CLR 04/M07 A3021 RMK AO2 SLP232 T00391067
KLCI 
35nm NE 
171456Z AUTO 31009KT 10SM FEW042 01/M11 A3017 RMK AO2 SLP225 60000 T00061106 51021 FZRANO
KLEB 
36nm NW 
171553Z 36007KT 10SM CLR 01/M10 A3020 RMK AO2 SLP234 T00111100
KORE 
36nm SW 
171552Z AUTO 28008G17KT 10SM CLR 03/M08 A3022 RMK AO2 SLP239 T00331078
TAF
KCON 
19nm E 
171132Z 1712/1812 VRB03KT P6SM SCT150 FM171400 30005KT P6SM SKC FM171800 31008G15KT P6SM FEW040 FM172300 VRB04KT P6SM SKC
KMHT 
24nm SE 
171132Z 1712/1812 VRB03KT P6SM FEW150 FM171400 30005KT P6SM SKC FM171800 31008G15KT P6SM FEW040 FM172300 VRB03KT P6SM FEW150
NOTAMs
Click for the latest NOTAMs
NOTAMs are issued by the DoD/FAA and will open in a separate window not controlled by AirNav.

 

 
 

Would you like to see your business listed on this page?

 If your business provides an interesting product or service to pilots, flight crews, aircraft, or users of the Hillsboro Ford Heliport, you should consider listing it here.  To start the listing process, click on the button below
 
Add a business
 

Other Pages about Hillsboro Ford Heliport

Update a link
 
Copyright © AirNav, LLC. All rights reserved. Privacy Policy  Contact